createdAt,value
2019-05-06T00:01:25.908Z,11.40
2019-05-06T00:03:57.541Z,8.10
2019-05-06T00:06:29.221Z,11.80
2019-05-06T00:09:01.287Z,9.65
2019-05-06T00:11:34.803Z,12.20
2019-05-06T00:14:06.858Z,8.93
2019-05-06T00:16:39.846Z,8.80
2019-05-06T00:19:13.870Z,8.33
2019-05-06T00:21:48.268Z,8.20
2019-05-06T00:24:20.949Z,7.60
2019-05-06T00:26:57.758Z,6.22
2019-05-06T00:29:30.421Z,7.70
2019-05-06T00:32:04.298Z,9.05
2019-05-06T00:34:35.377Z,7.33
2019-05-06T00:37:07.342Z,8.78
2019-05-06T00:39:46.991Z,9.05
2019-05-06T00:42:34.383Z,10.95
2019-05-06T00:45:08.440Z,10.90
2019-05-06T00:47:40.075Z,6.47
2019-05-06T00:50:14.228Z,9.78
2019-05-06T00:52:46.466Z,7.55
2019-05-06T00:55:18.267Z,8.05
2019-05-06T00:57:50.308Z,9.48
2019-05-06T01:00:24.483Z,11.95
2019-05-06T01:02:56.376Z,8.48
2019-05-06T01:05:28.257Z,10.40
2019-05-06T01:08:00.533Z,8.43
2019-05-06T01:10:34.236Z,7.78
2019-05-06T01:13:07.841Z,10.93
2019-05-06T01:18:10.522Z,9.25
2019-05-06T01:20:44.550Z,13.78
2019-05-06T01:23:15.686Z,11.75
2019-05-06T01:25:47.265Z,9.03
2019-05-06T01:28:19.211Z,11.15
2019-05-06T01:30:51.104Z,8.15
2019-05-06T01:33:24.120Z,10.05
2019-05-06T01:35:56.058Z,8.63
2019-05-06T01:38:29.351Z,10.45
2019-05-06T01:41:05.818Z,11.40
2019-05-06T01:43:39.253Z,10.18
2019-05-06T01:46:11.285Z,11.73
2019-05-06T01:48:49.578Z,12.30
2019-05-06T01:51:24.088Z,9.08
2019-05-06T01:53:55.884Z,10.65
2019-05-06T01:56:27.747Z,12.00
2019-05-06T01:58:59.285Z,7.55
2019-05-06T02:01:31.301Z,10.38
2019-05-06T02:04:04.537Z,8.98
2019-05-06T02:06:36.326Z,10.35
2019-05-06T02:09:13.661Z,13.88
2019-05-06T02:11:47.734Z,10.40
2019-05-06T02:14:18.251Z,10.18
2019-05-06T02:16:50.134Z,8.53
2019-05-06T02:19:24.089Z,8.78
2019-05-06T02:21:59.903Z,10.90
2019-05-06T02:24:36.069Z,9.93
2019-05-06T02:27:09.468Z,10.75
2019-05-06T02:29:43.885Z,11.30
2019-05-06T02:32:31.517Z,11.48
2019-05-06T02:35:19.767Z,9.78
2019-05-06T02:37:54.751Z,10.68
2019-05-06T02:40:27.488Z,11.07
2019-05-06T02:42:59.039Z,8.70
2019-05-06T02:45:33.479Z,10.55
2019-05-06T02:48:13.815Z,14.07
2019-05-06T02:50:48.345Z,11.43
2019-05-06T02:53:23.655Z,11.68
2019-05-06T02:55:55.881Z,13.90
2019-05-06T02:58:27.515Z,15.65
2019-05-06T03:00:59.343Z,11.25
2019-05-06T03:03:33.749Z,12.43
2019-05-06T03:06:04.646Z,9.10
2019-05-06T03:08:36.412Z,12.15
2019-05-06T03:11:09.536Z,13.60
2019-05-06T03:13:43.778Z,9.83
2019-05-06T03:16:14.894Z,9.53
2019-05-06T03:18:46.746Z,10.45
2019-05-06T03:21:25.982Z,10.72
2019-05-06T03:23:59.596Z,9.35
2019-05-06T03:26:33.126Z,9.75
2019-05-06T03:29:05.051Z,11.40
2019-05-06T03:31:37.898Z,11.22
2019-05-06T03:34:35.988Z,10.18
2019-05-06T03:36:48.275Z,11.00
2019-05-06T03:39:16.442Z,11.67
2019-05-06T03:41:48.336Z,10.05
2019-05-06T03:44:23.933Z,12.10
2019-05-06T03:47:13.935Z,10.45
2019-05-06T03:49:54.102Z,10.75
2019-05-06T03:52:25.198Z,10.20
2019-05-06T03:54:58.529Z,7.55
2019-05-06T03:57:33.453Z,9.80
2019-05-06T04:00:05.212Z,9.18
2019-05-06T04:02:39.708Z,10.43
2019-05-06T04:05:13.309Z,8.95
2019-05-06T04:07:47.194Z,9.63
2019-05-06T04:10:22.662Z,10.13
2019-05-06T04:12:54.532Z,9.73
2019-05-06T04:15:28.965Z,15.10
2019-05-06T04:18:08.604Z,9.38
2019-05-06T04:20:53.313Z,8.10
2019-05-06T04:23:32.813Z,7.75
2019-05-06T04:26:24.018Z,8.33
2019-05-06T04:28:56.032Z,10.03
2019-05-06T04:31:28.297Z,7.22
2019-05-06T04:34:09.975Z,8.20
2019-05-06T04:36:33.828Z,12.47
2019-05-06T04:39:06.826Z,12.60
2019-05-06T04:41:38.569Z,6.45
2019-05-06T04:44:13.575Z,8.88
2019-05-06T04:46:44.494Z,8.77
2019-05-06T04:49:17.053Z,10.65
2019-05-06T04:51:49.098Z,10.23
2019-05-06T04:54:26.148Z,13.30
2019-05-06T04:56:54.797Z,9.05
2019-05-06T04:59:26.575Z,7.03
2019-05-06T05:01:58.291Z,7.87
2019-05-06T05:04:32.772Z,10.05
2019-05-06T05:07:03.974Z,7.75
2019-05-06T05:09:35.824Z,8.95
2019-05-06T05:12:24.400Z,8.35
2019-05-06T05:15:12.731Z,7.58
2019-05-06T05:17:52.681Z,6.62
2019-05-06T05:20:36.849Z,8.15
2019-05-06T05:22:58.889Z,9.53
2019-05-06T05:25:30.555Z,5.47
2019-05-06T05:28:02.388Z,9.60
2019-05-06T05:30:34.508Z,7.87
2019-05-06T05:33:07.361Z,8.00
2019-05-06T05:35:39.023Z,7.03
2019-05-06T05:38:13.069Z,7.10
2019-05-06T05:40:45.162Z,6.72
2019-05-06T05:43:18.389Z,7.30
2019-05-06T05:45:52.302Z,8.50
2019-05-06T05:48:29.373Z,6.60
2019-05-06T05:51:03.318Z,7.92
2019-05-06T05:53:35.159Z,10.15
2019-05-06T05:56:06.975Z,6.58
2019-05-06T05:58:38.579Z,8.40
2019-05-06T06:01:12.704Z,7.35
2019-05-06T11:48:57.736Z,2.85
2019-05-06T11:51:32.940Z,2.30
2019-05-06T11:54:16.455Z,1.82
2019-05-06T11:56:48.772Z,2.25
2019-05-06T11:59:13.026Z,4.55
2019-05-06T12:01:46.381Z,3.08
2019-05-06T12:04:18.539Z,2.58
2019-05-06T12:06:52.437Z,2.52
2019-05-06T12:09:23.591Z,4.20
2019-05-06T12:11:55.775Z,2.40
2019-05-06T12:14:27.416Z,2.80
2019-05-06T12:16:59.378Z,4.53
2019-05-06T12:19:32.402Z,3.35
2019-05-06T12:22:04.517Z,7.80
2019-05-06T12:24:36.065Z,5.55
2019-05-06T12:27:07.935Z,4.55
2019-05-06T12:29:42.677Z,2.05
2019-05-06T12:32:17.589Z,3.30
2019-05-06T12:34:49.243Z,2.60
2019-05-06T12:37:22.448Z,8.25
2019-05-06T12:39:55.649Z,3.17
2019-05-06T12:42:28.942Z,4.65
2019-05-06T12:47:36.341Z,3.08
2019-05-06T12:52:39.156Z,4.08
2019-05-06T12:55:18.249Z,6.15
2019-05-06T12:57:44.505Z,2.27
2019-05-06T13:00:16.997Z,1.65
2019-05-06T13:02:48.992Z,5.23
2019-05-06T13:05:20.889Z,3.02
2019-05-06T13:07:53.792Z,15.28
2019-05-06T13:10:26.056Z,9.08
2019-05-06T13:12:59.351Z,4.83
2019-05-06T13:15:31.313Z,10.35
2019-05-06T13:18:07.111Z,6.15
2019-05-06T13:20:37.575Z,3.75
2019-05-06T13:23:27.162Z,5.80
2019-05-06T13:26:02.064Z,2.95
2019-05-06T13:28:35.721Z,1.95
2019-05-06T13:31:17.192Z,5.25
2019-05-06T13:33:49.908Z,5.60
2019-05-06T13:36:22.790Z,2.67
2019-05-06T13:39:09.813Z,6.50
2019-05-06T13:44:13.371Z,3.02
2019-05-06T13:46:47.041Z,2.62
2019-05-06T13:52:07.615Z,3.90
2019-05-06T13:54:41.954Z,1.65
2019-05-06T13:59:44.472Z,2.55
2019-05-06T14:02:34.030Z,1.60
2019-05-06T14:05:07.477Z,2.85
2019-05-06T14:07:39.150Z,2.20
2019-05-06T14:10:13.192Z,3.60
2019-05-06T14:15:16.510Z,4.20
2019-05-06T14:17:48.108Z,3.90
2019-05-06T14:20:21.988Z,5.35
2019-05-06T14:25:33.163Z,5.40
2019-05-06T14:28:09.286Z,2.67
2019-05-06T14:30:44.115Z,3.92
2019-05-06T14:33:17.304Z,4.50
2019-05-06T14:35:49.161Z,2.85
2019-05-06T14:38:24.333Z,3.67
2019-05-06T14:41:14.193Z,2.40
2019-05-06T14:43:46.355Z,3.95
2019-05-06T14:46:18.418Z,2.72
2019-05-06T14:48:50.485Z,3.65
2019-05-06T14:51:22.754Z,4.15
2019-05-06T14:53:54.920Z,2.47
2019-05-06T14:56:28.213Z,3.27
2019-05-06T14:59:06.728Z,3.40
2019-05-06T15:01:39.582Z,4.42
2019-05-06T15:04:12.464Z,4.15
2019-05-06T15:06:44.462Z,4.95
2019-05-06T15:09:16.313Z,2.47
2019-05-06T15:11:48.030Z,4.87
2019-05-06T15:14:22.533Z,4.62
2019-05-06T15:16:53.216Z,3.85
2019-05-06T15:19:24.993Z,3.92
2019-05-06T15:44:13.291Z,5.90
2019-05-06T15:46:45.480Z,3.92
2019-05-06T15:49:17.530Z,3.27
2019-05-06T15:51:49.289Z,2.58
2019-05-06T15:54:22.688Z,5.95
2019-05-06T15:56:54.539Z,6.28
2019-05-06T15:59:26.405Z,3.30
2019-05-06T16:01:58.387Z,5.37
2019-05-06T16:04:32.263Z,4.15
2019-05-06T16:09:34.577Z,5.87
2019-05-06T16:12:06.642Z,5.15
2019-05-06T16:14:38.402Z,7.90
2019-05-06T16:17:12.268Z,3.65
2019-05-06T16:22:14.600Z,8.78
2019-05-06T16:24:48.202Z,11.35
2019-05-06T16:27:20.265Z,5.53
2019-05-06T16:29:53.031Z,7.62
2019-05-06T16:32:25.004Z,6.20
2019-05-06T16:34:57.627Z,7.40
2019-05-06T16:37:29.646Z,6.90
2019-05-06T16:40:02.791Z,7.08
2019-05-06T16:42:36.321Z,13.45
2019-05-06T16:45:08.792Z,14.47
2019-05-06T16:47:44.386Z,14.10
2019-05-06T16:50:16.712Z,8.45
2019-05-06T16:52:48.488Z,8.75
2019-05-06T16:55:25.464Z,10.50
2019-05-06T16:57:59.035Z,11.80
2019-05-06T17:00:32.776Z,10.05
2019-05-06T17:03:14.887Z,10.23
2019-05-06T17:06:04.656Z,9.78
2019-05-06T17:08:36.820Z,12.45
2019-05-06T17:11:08.572Z,12.03
2019-05-06T17:13:42.563Z,14.05
2019-05-06T17:16:14.045Z,6.65
2019-05-06T17:18:45.885Z,5.90
2019-05-06T17:21:17.863Z,6.22
2019-05-06T17:23:52.071Z,7.42
2019-05-06T17:26:23.138Z,6.08
2019-05-06T17:29:02.851Z,9.43
2019-05-06T17:31:42.453Z,7.47
2019-05-06T17:34:20.102Z,10.70
2019-05-06T17:36:53.711Z,10.60
2019-05-06T17:39:25.640Z,7.10
2019-05-06T17:41:57.510Z,8.13
2019-05-06T17:44:29.222Z,8.28
2019-05-06T17:47:05.735Z,6.00
2019-05-06T17:49:39.151Z,8.73
2019-05-06T17:52:12.547Z,5.80
2019-05-06T17:54:44.386Z,9.18
2019-05-06T17:57:16.353Z,6.62
2019-05-06T17:59:48.559Z,6.45
2019-05-06T18:02:22.817Z,9.10
2019-05-06T18:04:55.007Z,8.23
2019-05-06T18:07:26.834Z,6.10
2019-05-06T18:09:58.762Z,6.17
2019-05-06T18:12:32.737Z,7.05
2019-05-06T18:15:04.595Z,6.42
2019-05-06T18:17:36.352Z,8.33
2019-05-06T18:20:12.555Z,7.55
2019-05-06T18:22:43.776Z,8.23
2019-05-06T18:25:15.741Z,9.73
2019-05-06T18:27:47.380Z,9.60
2019-05-06T18:30:24.879Z,9.03
2019-05-06T18:32:52.755Z,7.90
2019-05-06T18:35:24.925Z,9.25
2019-05-06T18:37:56.579Z,8.45
2019-05-06T18:40:28.437Z,7.25
2019-05-06T18:43:01.993Z,7.03
2019-05-06T18:45:34.929Z,4.67
2019-05-06T18:48:06.766Z,7.47
2019-05-06T18:50:39.564Z,6.37
2019-05-06T18:53:13.353Z,3.83
2019-05-06T18:55:44.719Z,5.17
2019-05-06T18:58:16.564Z,5.33
2019-05-06T19:00:48.446Z,6.22
2019-05-06T19:03:22.502Z,5.00
2019-05-06T19:05:54.013Z,5.60
2019-05-06T19:08:27.297Z,5.58
2019-05-06T19:10:59.114Z,4.85
2019-05-06T19:13:33.419Z,4.75
2019-05-06T19:16:05.215Z,7.33
2019-05-06T19:18:38.656Z,10.35
2019-05-06T19:21:10.445Z,8.55
2019-05-06T19:23:42.759Z,8.08
2019-05-06T19:26:14.624Z,7.17
2019-05-06T19:28:46.790Z,7.17
2019-05-06T19:31:18.340Z,6.12
2019-05-06T19:33:52.622Z,7.42
2019-05-06T19:36:24.620Z,7.83
2019-05-06T19:38:56.383Z,5.45
2019-05-06T19:41:28.262Z,5.78
2019-05-06T19:44:02.114Z,8.65
2019-05-06T19:46:35.136Z,11.35
2019-05-06T19:49:06.790Z,11.73
2019-05-06T19:51:39.026Z,12.98
2019-05-06T19:54:12.659Z,11.50
2019-05-06T19:56:44.112Z,10.98
2019-05-06T19:59:16.020Z,10.30
2019-05-06T20:01:48.130Z,15.00
2019-05-06T20:04:20.089Z,11.93
2019-05-06T20:07:08.097Z,8.80
2019-05-06T20:09:42.693Z,7.90
2019-05-06T20:12:23.041Z,20.23
2019-05-06T20:14:56.360Z,10.18
2019-05-06T20:17:28.621Z,11.55
2019-05-06T20:20:00.243Z,17.35
2019-05-06T20:22:32.619Z,19.07
2019-05-06T20:25:04.989Z,28.75
2019-05-06T20:27:37.773Z,26.17
2019-05-06T20:30:10.760Z,33.40
2019-05-06T20:32:43.031Z,23.52
2019-05-06T20:35:14.769Z,26.60
2019-05-06T20:37:46.328Z,22.35
2019-05-06T20:40:18.513Z,18.52
2019-05-06T20:42:50.333Z,20.95
2019-05-06T20:45:22.496Z,15.23
2019-05-06T20:47:54.308Z,13.25
2019-05-06T20:50:26.132Z,10.35
2019-05-06T20:52:59.385Z,10.50
2019-05-06T20:55:34.965Z,13.50
2019-05-06T20:58:05.551Z,7.67
2019-05-06T21:00:37.200Z,7.75
2019-05-06T21:03:09.448Z,9.00
2019-05-06T21:05:43.482Z,7.53
2019-05-06T21:08:14.601Z,6.75
2019-05-06T21:10:49.523Z,6.90
2019-05-06T21:13:29.535Z,7.03
2019-05-06T21:15:54.364Z,10.78
2019-05-06T21:18:26.343Z,6.53
2019-05-06T21:20:58.433Z,7.47
2019-05-06T21:23:31.981Z,12.98
2019-05-06T21:26:03.470Z,14.30
2019-05-06T21:28:35.322Z,14.18
2019-05-06T21:31:07.384Z,16.62
2019-05-06T21:33:39.451Z,21.02
2019-05-06T21:36:12.409Z,20.30
2019-05-06T21:38:44.130Z,18.87
2019-05-06T21:41:17.901Z,13.65
2019-05-06T21:43:50.306Z,13.78
2019-05-06T21:46:22.237Z,13.72
2019-05-06T21:48:53.973Z,15.78
2019-05-06T21:51:26.161Z,16.00
2019-05-06T21:53:58.230Z,14.68
2019-05-06T21:56:31.937Z,10.75
2019-05-06T21:59:03.363Z,13.28
2019-05-06T22:01:35.633Z,8.58
2019-05-06T22:04:07.256Z,9.48
2019-05-06T22:06:39.054Z,9.40
2019-05-06T22:09:11.740Z,9.33
2019-05-06T22:11:43.603Z,9.00
2019-05-06T22:14:15.466Z,9.75
2019-05-06T22:16:47.325Z,9.10
2019-05-06T22:19:19.181Z,17.02
2019-05-06T22:22:07.938Z,20.05
2019-05-06T22:24:42.724Z,23.22
2019-05-06T22:27:14.913Z,18.07
2019-05-06T22:29:46.695Z,20.20
2019-05-06T22:32:18.351Z,20.27
2019-05-06T22:34:53.518Z,17.77
2019-05-06T22:37:25.658Z,15.60
2019-05-06T22:39:57.703Z,12.35
2019-05-06T22:42:29.421Z,8.48
2019-05-06T22:45:01.960Z,10.55
2019-05-06T22:47:33.916Z,10.88
2019-05-06T22:50:07.163Z,11.48
2019-05-06T22:52:38.861Z,10.50
2019-05-06T22:55:12.971Z,11.53
2019-05-06T22:57:44.848Z,15.88
2019-05-06T23:00:22.467Z,20.82
2019-05-06T23:02:55.560Z,29.30
2019-05-06T23:05:27.054Z,28.30
2019-05-06T23:07:58.607Z,30.30
2019-05-06T23:10:30.490Z,26.77
2019-05-06T23:13:03.120Z,28.57
2019-05-06T23:15:34.810Z,27.93
2019-05-06T23:18:06.582Z,22.75
2019-05-06T23:20:38.234Z,18.35
2019-05-06T23:23:12.762Z,15.90
2019-05-06T23:25:44.925Z,14.28
2019-05-06T23:28:16.970Z,12.23
2019-05-06T23:30:48.831Z,9.00
2019-05-06T23:33:22.821Z,9.73
2019-05-06T23:35:53.920Z,8.75
2019-05-06T23:39:02.014Z,10.88
2019-05-06T23:42:12.275Z,12.60
2019-05-06T23:45:22.749Z,18.00
2019-05-06T23:48:30.542Z,13.13
2019-05-06T23:51:39.041Z,7.65
2019-05-06T23:54:47.380Z,6.85
2019-05-06T23:57:18.110Z,8.73
2019-05-06T23:59:51.862Z,20.10
